地図

経路データ

SID SEASON NUMBER BASIN SUBBASIN NAME ISO_TIME NATURE LAT LON WMO_WIND WMO_PRES WMO_AGENCY TRACK_TYPE DIST2LAND LANDFALL IFLAG USA_AGENCY USA_ATCF_ID USA_LAT USA_LON USA_RECORD USA_STATUS USA_WIND USA_PRES USA_SSHS USA_R34_NE USA_R34_SE USA_R34_SW USA_R34_NW USA_R50_NE USA_R50_SE USA_R50_SW USA_R50_NW USA_R64_NE USA_R64_SE USA_R64_SW USA_R64_NW USA_POCI USA_ROCI USA_RMW USA_EYE TOKYO_LAT TOKYO_LON TOKYO_GRADE TOKYO_WIND TOKYO_PRES TOKYO_R50_DIR TOKYO_R50_LONG TOKYO_R50_SHORT TOKYO_R30_DIR TOKYO_R30_LONG TOKYO_R30_SHORT TOKYO_LAND CMA_LAT CMA_LON CMA_CAT CMA_WIND CMA_PRES HKO_LAT HKO_LON HKO_CAT HKO_WIND HKO_PRES NEWDELHI_LAT NEWDELHI_LON NEWDELHI_GRADE NEWDELHI_WIND NEWDELHI_PRES NEWDELHI_CI NEWDELHI_DP NEWDELHI_POCI REUNION_LAT REUNION_LON REUNION_TYPE REUNION_WIND REUNION_PRES REUNION_TNUM REUNION_CI REUNION_RMW REUNION_R34_NE REUNION_R34_SE REUNION_R34_SW REUNION_R34_NW REUNION_R50_NE REUNION_R50_SE REUNION_R50_SW REUNION_R50_NW REUNION_R64_NE REUNION_R64_SE REUNION_R64_SW REUNION_R64_NW BOM_LAT BOM_LON BOM_TYPE BOM_WIND BOM_PRES BOM_TNUM BOM_CI BOM_RMW BOM_R34_NE BOM_R34_SE BOM_R34_SW BOM_R34_NW BOM_R50_NE BOM_R50_SE BOM_R50_SW BOM_R50_NW BOM_R64_NE BOM_R64_SE BOM_R64_SW BOM_R64_NW BOM_ROCI BOM_POCI BOM_EYE BOM_POS_METHOD BOM_PRES_METHOD NADI_LAT NADI_LON NADI_CAT NADI_WIND NADI_PRES WELLINGTON_LAT WELLINGTON_LON WELLINGTON_WIND WELLINGTON_PRES DS824_LAT DS824_LON DS824_STAGE DS824_WIND DS824_PRES TD9636_LAT TD9636_LON TD9636_STAGE TD9636_WIND TD9636_PRES TD9635_LAT TD9635_LON TD9635_WIND TD9635_PRES TD9635_ROCI NEUMANN_LAT NEUMANN_LON NEUMANN_CLASS NEUMANN_WIND NEUMANN_PRES MLC_LAT MLC_LON MLC_CLASS MLC_WIND MLC_PRES USA_GUST BOM_GUST BOM_GUST_PER REUNION_GUST REUNION_GUST_PER USA_SEAHGT USA_SEARAD_NE USA_SEARAD_SE USA_SEARAD_SW USA_SEARAD_NW STORM_SPEED STORM_DIR
1886099S13062 1886 5 SI MM NOT_NAMED 1886-04-09 00:00:00 TS -12.7000 62.3000 main 962 942 _________O____ -1 -12.7000 62.3000 TC 5 245
1886099S13062 1886 5 SI MM NOT_NAMED 1886-04-09 03:00:00 TS -12.8100 62.0625 main 942 916 _________P____ -1 -12.8100 62.0625 TC 5 248
1886099S13062 1886 5 SI MM NOT_NAMED 1886-04-09 06:00:00 TS -12.9000 61.8000 main 916 891 _________O____ -1 -12.9000 61.8000 TC 6 255
1886099S13062 1886 5 SI MM NOT_NAMED 1886-04-09 09:00:00 TS -12.9575 61.5000 main 891 877 _________P____ -1 -12.9575 61.5000 TC 6 260
1886099S13062 1886 5 SI MM NOT_NAMED 1886-04-09 12:00:00 TS -13.0000 61.2000 main 877 864 _________O____ -1 -13.0000 61.2000 TC 6 260
1886099S13062 1886 5 SI MM NOT_NAMED 1886-04-09 15:00:00 TS -13.0500 60.9350 main 864 846 _________P____ -1 -13.0500 60.9350 TC 5 258
1886099S13062 1886 5 SI MM NOT_NAMED 1886-04-09 18:00:00 TS -13.1000 60.7000 main 846 838 _________O____ -1 -13.1000 60.7000 TC 4 259
1886099S13062 1886 5 SI MM NOT_NAMED 1886-04-09 21:00:00 TS -13.1273 60.5299 main 838 820 _________P____ -1 -13.1273 60.5299 TC 4 256
1886099S13062 1886 5 SI MM NOT_NAMED 1886-04-10 00:00:00 TS -13.2000 60.3000 main 820 785 _________O____ -1 -13.2000 60.3000 TC 7 248
1886099S13062 1886 5 SI MM NOT_NAMED 1886-04-10 03:00:00 TS -13.3776 59.8876 main 785 749 _________P____ -1 -13.3776 59.8876 TC 10 245
1886099S13062 1886 5 SI MM NOT_NAMED 1886-04-10 06:00:00 TS -13.6000 59.4000 main 749 718 _________O____ -1 -13.6000 59.4000 TC 10 245
1886099S13062 1886 5 SI MM NOT_NAMED 1886-04-10 09:00:00 TS -13.8075 58.9425 main 716 687 _________P____ -1 -13.8075 58.9425 TC 10 245
1886099S13062 1886 5 SI MM NOT_NAMED 1886-04-10 12:00:00 TS -14.0000 58.5000 main 687 672 _________O____ -1 -14.0000 58.5000 TC 9 247
1886099S13062 1886 5 SI MM NOT_NAMED 1886-04-10 15:00:00 TS -14.1499 58.0924 main 672 649 _________P____ -1 -14.1499 58.0924 TC 8 249
1886099S13062 1886 5 SI MM NOT_NAMED 1886-04-10 18:00:00 TS -14.3000 57.7000 main 649 626 _________O____ -1 -14.3000 57.7000 TC 9 246
1886099S13062 1886 5 SI MM NOT_NAMED 1886-04-10 21:00:00 TS -14.5076 57.2626 main 627 606 _________P____ -1 -14.5076 57.2626 TC 9 243
1886099S13062 1886 5 SI MM NOT_NAMED 1886-04-11 00:00:00 TS -14.7000 56.9000 main 607 597 _________O____ -1 -14.7000 56.9000 TC 6 240
1886099S13062 1886 5 SI MM NOT_NAMED 1886-04-11 03:00:00 TS -14.8149 56.7124 main 599 588 _________P____ -1 -14.8149 56.7124 TC 4 236
1886099S13062 1886 5 SI MM NOT_NAMED 1886-04-11 06:00:00 TS -14.9000 56.6000 main 589 580 _________O____ -1 -14.9000 56.6000 TC 3 234
1886099S13062 1886 5 SI MM NOT_NAMED 1886-04-11 09:00:00 TS -15.0075 56.4425 main 582 571 _________P____ -1 -15.0075 56.4425 TC 4 236
1886099S13062 1886 5 SI MM NOT_NAMED 1886-04-11 12:00:00 TS -15.1000 56.3000 main 573 573 _________O____ -1 -15.1000 56.3000 TC 3 239
1886099S13062 1886 5 SI MM NOT_NAMED 1886-04-11 15:00:00 TS -15.1500 56.1925 main 576 565 _________P____ -1 -15.1500 56.1925 TC 2 243
1886099S13062 1886 5 SI MM NOT_NAMED 1886-04-11 18:00:00 TS -15.2000 56.1000 main 567 560 _________O____ -1 -15.2000 56.1000 TC 2 232
1886099S13062 1886 5 SI MM NOT_NAMED 1886-04-11 21:00:00 TS -15.2850 56.0150 main 560 549 _________P____ -1 -15.2850 56.0150 TC 3 224
1886099S13062 1886 5 SI MM NOT_NAMED 1886-04-12 00:00:00 TS -15.4000 55.9000 main 552 545 _________O____ -1 -15.4000 55.9000 TC 4 229
1886099S13062 1886 5 SI MM NOT_NAMED 1886-04-12 03:00:00 TS -15.5425 55.7075 main 548 531 _________P____ -1 -15.5425 55.7075 TC 5 232
1886099S13062 1886 5 SI MM NOT_NAMED 1886-04-12 06:00:00 TS -15.7000 55.5000 main 535 526 _________O____ -1 -15.7000 55.5000 TC 5 228
1886099S13062 1886 5 SI MM NOT_NAMED 1886-04-12 09:00:00 TS -15.8575 55.3425 main 517 507 _________P____ -1 -15.8575 55.3425 TC 4 224
1886099S13062 1886 5 SI MM NOT_NAMED 1886-04-12 12:00:00 TS -16.0000 55.2000 main 507 497 _________O____ -1 -16.0000 55.2000 TC 4 229
1886099S13062 1886 5 SI MM NOT_NAMED 1886-04-12 15:00:00 TS -16.1000 55.0500 main 488 479 _________P____ -1 -16.1000 55.0500 TC 4 235
1886099S13062 1886 5 SI MM NOT_NAMED 1886-04-12 18:00:00 TS -16.2000 54.9000 main 479 468 _________O____ -1 -16.2000 54.9000 TC 4 231
1886099S13062 1886 5 SI MM NOT_NAMED 1886-04-12 21:00:00 TS -16.3425 54.7425 main 460 452 _________P____ -1 -16.3425 54.7425 TC 4 224
1886099S13062 1886 5 SI MM NOT_NAMED 1886-04-13 00:00:00 TS -16.5000 54.6000 main 455 448 _________O____ -1 -16.5000 54.6000 TC 4 218
1886099S13062 1886 5 SI MM NOT_NAMED 1886-04-13 03:00:00 TS -16.6500 54.4925 main 448 441 _________P____ -1 -16.6500 54.4925 TC 4 212
1886099S13062 1886 5 SI MM NOT_NAMED 1886-04-13 06:00:00 TS -16.8000 54.4000 main 445 439 _________O____ -1 -16.8000 54.4000 TC 3 213
1886099S13062 1886 5 SI MM NOT_NAMED 1886-04-13 09:00:00 TS -16.9425 54.3000 main 439 433 _________P____ -1 -16.9425 54.3000 TC 4 212
1886099S13062 1886 5 SI MM NOT_NAMED 1886-04-13 12:00:00 TS -17.1000 54.2000 main 438 432 _________O____ -1 -17.1000 54.2000 TC 4 208
1886099S13062 1886 5 SI MM NOT_NAMED 1886-04-13 15:00:00 TS -17.3000 54.1075 main 432 414 _________P____ -1 -17.3000 54.1075 TC 4 205
1886099S13062 1886 5 SI MM NOT_NAMED 1886-04-13 18:00:00 TS -17.5000 54.0000 main 414 404 _________O____ -1 -17.5000 54.0000 TC 4 214
1886099S13062 1886 5 SI MM NOT_NAMED 1886-04-13 21:00:00 TS -17.6500 53.8575 main 407 395 _________P____ -1 -17.6500 53.8575 TC 4 223
1886099S13062 1886 5 SI MM NOT_NAMED 1886-04-14 00:00:00 TS -17.8000 53.7000 main 395 379 _________O____ -1 -17.8000 53.7000 TC 5 220
1886099S13062 1886 5 SI MM NOT_NAMED 1886-04-14 03:00:00 TS -18.0000 53.5500 main 379 371 _________P____ -1 -18.0000 53.5500 TC 5 215
1886099S13062 1886 5 SI MM NOT_NAMED 1886-04-14 06:00:00 TS -18.2000 53.4000 main 371 367 _________O____ -1 -18.2000 53.4000 TC 4 221
1886099S13062 1886 5 SI MM NOT_NAMED 1886-04-14 09:00:00 TS -18.3350 53.2499 main 373 362 _________P____ -1 -18.3350 53.2499 TC 4 223
1886099S13062 1886 5 SI MM NOT_NAMED 1886-04-14 12:00:00 TS -18.5000 53.1000 main 362 351 _________O____ -1 -18.5000 53.1000 TC 5 214
1886099S13062 1886 5 SI MM NOT_NAMED 1886-04-14 15:00:00 TS -18.7775 52.9351 main 351 335 _________P____ -1 -18.7775 52.9351 TC 7 205
1886099S13062 1886 5 SI MM NOT_NAMED 1886-04-14 18:00:00 TS -19.1000 52.8000 main 335 321 _________O____ -1 -19.1000 52.8000 TC 7 197
1886099S13062 1886 5 SI MM NOT_NAMED 1886-04-14 21:00:00 TS -19.4000 52.7349 main 322 303 _________P____ -1 -19.4000 52.7349 TC 6 189
1886099S13062 1886 5 SI MM NOT_NAMED 1886-04-15 00:00:00 TS -19.7000 52.7000 main 303 292 _________O____ -1 -19.7000 52.7000 TC 6 188
1886099S13062 1886 5 SI MM NOT_NAMED 1886-04-15 03:00:00 TS -19.9925 52.6425 main 297 284 _________P____ -1 -19.9925 52.6425 TC 6 189
1886099S13062 1886 5 SI MM NOT_NAMED 1886-04-15 06:00:00 TS -20.3000 52.6000 main 284 275 _________O____ -1 -20.3000 52.6000 TC 7 181
1886099S13062 1886 5 SI MM NOT_NAMED 1886-04-15 09:00:00 TS -20.6425 52.6148 main 275 269 _________P____ -1 -20.6425 52.6148 TC 7 0
1886099S13062 1886 5 SI MM NOT_NAMED 1886-04-15 12:00:00 TS -21.0000 52.6000 main 269 269 _________O____ -1 -21.0000 52.6000 TC 7 191
1886099S13062 1886 5 SI MM NOT_NAMED 1886-04-15 15:00:00 TS -21.3500 52.4651 main 281 281 _________P____ -1 -21.3500 52.4651 TC 8 202
1886099S13062 1886 5 SI MM NOT_NAMED 1886-04-15 18:00:00 TS -21.7000 52.3000 main 307 307 _________O____ -1 -21.7000 52.3000 TC 8 205
1886099S13062 1886 5 SI MM NOT_NAMED 1886-04-15 21:00:00 TS -22.0424 52.1180 main 335 335 _________P____ -1 -22.0424 52.1180 TC 7 195
1886099S13062 1886 5 SI MM NOT_NAMED 1886-04-16 00:00:00 TS -22.4000 52.1000 main 351 342 _________O____ -1 -22.4000 52.1000 TC 8 161
1886099S13062 1886 5 SI MM NOT_NAMED 1886-04-16 03:00:00 TS -22.8075 52.4021 main 342 325 _________P____ -1 -22.8075 52.4021 TC 11 137
1886099S13062 1886 5 SI MM NOT_NAMED 1886-04-16 06:00:00 TS -23.2000 52.9000 main 325 312 _________O____ -1 -23.2000 52.9000 TC 12 126
1886099S13062 1886 5 SI MM NOT_NAMED 1886-04-16 09:00:00 TS -23.5229 53.4724 main 307 304 _________P____ -1 -23.5229 53.4724 TC 12 121
1886099S13062 1886 5 SI MM NOT_NAMED 1886-04-16 12:00:00 TS -23.8000 54.0000 main 309 305 _________O____ -1 -23.8000 54.0000 TC 9 125
1886099S13062 1886 5 SI MM NOT_NAMED 1886-04-16 15:00:00 TS -24.0497 54.3029 main 318 318 _________P____ -1 -24.0497 54.3029 TC 7 138
1886099S13062 1886 5 SI MM NOT_NAMED 1886-04-16 18:00:00 TS -24.3000 54.5000 main 343 343 _________O____ -1 -24.3000 54.5000 TC 6 146
1886099S13062 1886 5 SI MM NOT_NAMED 1886-04-16 21:00:00 TS -24.5877 54.6946 main 369 369 _________P____ -1 -24.5877 54.6946 TC 7 149
1886099S13062 1886 5 SI MM NOT_NAMED 1886-04-17 00:00:00 TS -24.9000 54.9000 main 397 _________O____ -1 -24.9000 54.9000 TC 7 149

IBTrACS Databaseについて

本データベースは、米国NOAAが公開する1842年以降の世界の熱帯低気圧のベストトラックデータアーカイブInternational Best Track Archive for Climate Stewardship (IBTrACS)を、ウェブで閲覧しやすい形式に変換したものです。

最終更新日:2021-10-08